Etusivu
METAR-TAF:

METAR-TAF

Lentoasemat :

Chièvres, Belgia

Leveyspiiri: 50-34N, Pituuspiiri: 003-50E, korkeus merenpinnasta: 60 m

Tämänhetkinen sää

Tämä raportti tehtiin 15 minuuttia sitten, kello 16.25 UTC
Tuuli 1 kn eri suunnista
Lämpötila 0°C
Kosteus 86%
Ilmanpaine 1024 hPa
Näkyvyys 10 km tai enemmän

METAR: EBCV 141625Z AUTO VRB01KT 9999 OVC033/// 00/M02 Q1024 BLU

Aika: 17:40 (16:40 UTC)

Sääennuste

Tämä raportti tehtiin 7 tuntia ja 59 minuuttia sitten, kello 08.41 UTC
Ennuste voimassa 14. päivästä klo 10 UTC - 14. päivään klo 19 UTC
Tuuli 5 kn idästä/koillisesta
Näkyvyys 10 km tai enemmän
Hajonneita pilviä 3000 ft:n korkeudessa
Ajoittain
14. päivästä klo 10 UTC - 14. päivään klo 12 UTC
Näkyvyys: 5000 m
Hajanaisia pilviä 1000 ft:n korkeudessa
utua

TAF: EBCV 140841Z 1410/1419 06005KT 9999 BKN030 TEMPO 1410/1412 5000 BR SCT010 BY EBWM

Säähavainnot ja -ennusteet yli 4000 lentoasemalta (METAR- ja TAF-raportit).

Käytössä olevat sääasemat on merkitty karttaan keltaisilla ja punaisilla pisteillä.

Aseta hiiri pisteen päälle nähdäksesi sääaseman nimen.

Klikkaa sitten nähdäksesi säähavainnot ja -ennusteet.

Kartan vaihtaminen: klikkaa mustalla rastilla varustettuja vihreitä pisteitä, niin voit zoomata sisään; viivalla varustettua vihreää pistettä, niin voit zoomata ulos tai vihreitä nuolia, niin pääset viereisille kartoille.


METAR-TAF: